dimanche 26 janvier 2014

ALERTE SPOTTING 26/01/14

IL9 CU-T1250 Cubana
   CU444/CU445 10h30/13h30

744 EC-KQC Pullmantur Air

   PLM6121/PLM710P 08h50/10h50

GRJ XC-LMF Armada de Mexico
   dpt18h00

320 EC-JZQ Vueling (stickers Thanks)
   VY1466/VY1467  16h50/17h25

320 F-HDMF Air Corsica (cyclistes)
   XK4503/XK751   15h00/15h55
   XK750/XK4504  19h55/21h00

 Manque les prévisions Air Europa / Flybe / certains Air Algérie
*** Heures en Local Time / prévisions soumises
 à modifications de dernières minutes ***

le TAF de la journée:



METAR: LFPO 260330Z 28006KT 9999 FEW033 BKN240 05/02 Q1019 NOSIG= 

TAF LONG: LFPO 252300Z 2600/2706 30010KT 9999 SCT025 BECMG 2602/2604
23005KT PROB30 TEMPO 2605/2608 BKN006 BECMG 2608/2610 BKN012 BECMG
2610/2612 17015KT -RA BKN009 TEMPO 2613/2620 18015G30KT 3000 RA
SCT004 BKN009 BECMG 2622/2701 27010KT NSW SCT025=


Les logs des jours précédents :
 http://www.airkalo.com/ORLYAVIATION/Logdumois.html